createdAt,value
2018-08-04T00:00:05.962Z,26.90
2018-08-04T00:02:33.370Z,26.90
2018-08-04T00:05:00.691Z,26.90
2018-08-04T00:07:28.048Z,26.90
2018-08-04T00:09:55.433Z,27.00
2018-08-04T00:12:22.826Z,26.90
2018-08-04T00:14:50.183Z,26.90
2018-08-04T00:17:17.637Z,26.80
2018-08-04T00:19:45.056Z,27.10
2018-08-04T00:22:12.471Z,26.70
2018-08-04T00:24:39.896Z,26.50
2018-08-04T00:27:07.264Z,26.70
2018-08-04T00:29:34.719Z,26.70
2018-08-04T00:32:02.112Z,26.70
2018-08-04T00:34:29.477Z,26.60
2018-08-04T00:36:56.890Z,26.60
2018-08-04T00:39:24.361Z,26.60
2018-08-04T00:41:51.789Z,26.60
2018-08-04T00:44:22.018Z,26.60
2018-08-04T00:49:16.692Z,26.50
2018-08-04T00:51:44.076Z,26.50
2018-08-04T00:54:11.548Z,26.50
2018-08-04T00:56:38.920Z,26.50
2018-08-04T00:59:06.341Z,26.50
2018-08-04T01:01:33.673Z,26.40
2018-08-04T01:04:01.079Z,26.40
2018-08-04T01:06:28.542Z,26.40
2018-08-04T01:08:55.872Z,26.40
2018-08-04T01:11:23.210Z,26.30
2018-08-04T01:13:50.739Z,26.20
2018-08-04T01:16:18.347Z,26.20
2018-08-04T01:18:46.001Z,26.20
2018-08-04T01:21:13.402Z,26.10
2018-08-04T01:23:40.830Z,26.00
2018-08-04T01:26:08.176Z,26.10
2018-08-04T01:28:35.582Z,26.00
2018-08-04T01:31:02.991Z,26.00
2018-08-04T01:33:30.365Z,25.80
2018-08-04T01:36:04.002Z,25.80
2018-08-04T01:38:31.457Z,25.80
2018-08-04T01:40:58.818Z,25.80
2018-08-04T01:43:36.715Z,25.70
2018-08-04T01:46:07.041Z,25.70
2018-08-04T01:48:34.454Z,25.40
2018-08-04T01:51:01.805Z,25.60
2018-08-04T01:53:29.240Z,25.60
2018-08-04T01:55:56.651Z,25.50
2018-08-04T01:58:24.860Z,25.40
2018-08-04T02:00:52.469Z,25.40
2018-08-04T02:03:19.842Z,25.40
2018-08-04T02:05:47.158Z,25.10
2018-08-04T02:08:14.565Z,25.30
2018-08-04T02:10:44.832Z,25.30
2018-08-04T02:13:12.226Z,25.30
2018-08-04T02:15:39.586Z,25.20
2018-08-04T02:18:09.339Z,25.10
2018-08-04T02:20:36.649Z,25.00
2018-08-04T02:23:03.997Z,25.00
2018-08-04T02:25:32.597Z,25.00
2018-08-04T02:28:00.118Z,24.90
2018-08-04T02:30:27.475Z,24.90
2018-08-04T02:32:54.871Z,24.80
2018-08-04T02:35:22.318Z,24.80
2018-08-04T02:37:49.715Z,24.70
2018-08-04T02:40:17.147Z,24.70
2018-08-04T02:42:44.542Z,24.60
2018-08-04T02:45:11.978Z,24.60
2018-08-04T02:47:39.391Z,24.50
2018-08-04T02:50:07.457Z,24.50
2018-08-04T02:52:34.981Z,24.50
2018-08-04T02:55:02.338Z,24.30
2018-08-04T02:57:32.566Z,24.40
2018-08-04T02:59:59.934Z,24.40
2018-08-04T03:02:27.251Z,24.30
2018-08-04T03:04:54.606Z,24.20
2018-08-04T03:07:22.171Z,24.20
2018-08-04T03:09:49.641Z,24.20
2018-08-04T03:12:20.723Z,24.10
2018-08-04T03:14:48.104Z,24.20
2018-08-04T03:17:15.637Z,24.10
2018-08-04T03:19:43.372Z,24.00
2018-08-04T03:22:10.748Z,24.00
2018-08-04T03:24:38.102Z,23.90
2018-08-04T03:27:05.586Z,23.90
2018-08-04T03:29:32.929Z,23.90
2018-08-04T03:32:00.288Z,23.90
2018-08-04T03:34:29.542Z,23.80
2018-08-04T03:36:57.650Z,23.80
2018-08-04T03:39:25.018Z,23.70
2018-08-04T03:41:52.473Z,23.70
2018-08-04T03:44:19.778Z,23.50
2018-08-04T03:46:47.162Z,23.70
2018-08-04T03:49:14.655Z,23.50
2018-08-04T03:51:42.172Z,23.50
2018-08-04T03:54:11.024Z,23.40
2018-08-04T03:56:38.389Z,23.40
2018-08-04T03:59:05.857Z,23.40
2018-08-04T04:01:33.223Z,23.40
2018-08-04T04:04:00.593Z,23.40
2018-08-04T04:06:28.738Z,23.30
2018-08-04T04:08:56.126Z,23.30
2018-08-04T04:11:25.174Z,23.30
2018-08-04T04:13:52.525Z,23.30
2018-08-04T04:16:19.860Z,23.30
2018-08-04T04:18:50.509Z,23.30
2018-08-04T04:21:18.215Z,23.30
2018-08-04T04:23:45.585Z,23.20
2018-08-04T04:26:13.112Z,23.30
2018-08-04T04:28:40.600Z,23.30
2018-08-04T04:31:07.966Z,23.30
2018-08-04T04:33:35.337Z,23.30
2018-08-04T04:36:02.749Z,23.40
2018-08-04T04:38:30.148Z,23.40
2018-08-04T04:43:24.805Z,23.40
2018-08-04T04:45:54.717Z,23.40
2018-08-04T04:48:22.116Z,23.40
2018-08-04T04:50:49.454Z,23.40
2018-08-04T04:53:16.823Z,23.40
2018-08-04T04:55:44.370Z,23.40
2018-08-04T04:58:11.866Z,23.20
2018-08-04T05:00:39.214Z,23.50
2018-08-04T05:03:06.541Z,23.50
2018-08-04T05:05:34.155Z,23.50
2018-08-04T05:08:01.617Z,23.50
2018-08-04T05:10:28.999Z,23.60
2018-08-04T05:12:56.362Z,23.60
2018-08-04T05:15:23.694Z,23.60
2018-08-04T05:17:51.072Z,23.70
2018-08-04T05:20:18.554Z,23.80
2018-08-04T05:22:45.961Z,23.80
2018-08-04T05:25:13.389Z,23.80
2018-08-04T05:27:40.679Z,23.80
2018-08-04T05:30:08.165Z,23.90
2018-08-04T05:32:35.705Z,23.90
2018-08-04T05:35:03.157Z,23.90
2018-08-04T05:37:30.603Z,23.90
2018-08-04T05:39:57.875Z,24.00
2018-08-04T05:42:25.356Z,24.10
2018-08-04T05:44:52.736Z,24.10
2018-08-04T05:47:20.153Z,24.10
2018-08-04T05:49:47.953Z,24.10
2018-08-04T05:52:15.334Z,24.00
2018-08-04T05:54:42.757Z,24.20
2018-08-04T05:57:10.148Z,24.20
2018-08-04T05:59:38.226Z,24.30
2018-08-04T06:02:05.594Z,24.00
2018-08-04T06:04:32.909Z,24.10
2018-08-04T06:07:01.056Z,24.20
2018-08-04T06:09:28.776Z,24.30
2018-08-04T06:11:56.180Z,24.30
2018-08-04T06:14:23.462Z,24.30
2018-08-04T06:16:51.305Z,24.30
2018-08-04T06:19:18.977Z,24.40
2018-08-04T06:21:46.333Z,24.50
2018-08-04T06:24:13.618Z,24.70
2018-08-04T06:26:41.129Z,24.40
2018-08-04T06:29:10.802Z,24.50
2018-08-04T06:31:39.284Z,24.60
2018-08-04T06:34:06.673Z,24.50
2018-08-04T06:36:34.028Z,24.70
2018-08-04T06:39:01.361Z,24.80
2018-08-04T06:41:28.747Z,24.80
2018-08-04T06:43:56.044Z,24.90
2018-08-04T06:46:23.371Z,25.00
2018-08-04T06:48:50.777Z,25.10
2018-08-04T06:51:18.256Z,25.20
2018-08-04T06:53:45.755Z,25.30
2018-08-04T06:56:13.070Z,25.40
2018-08-04T06:58:40.520Z,25.50
2018-08-04T07:01:09.362Z,25.50
2018-08-04T07:03:36.677Z,25.50
2018-08-04T07:06:04.313Z,25.50
2018-08-04T07:08:31.713Z,25.70
2018-08-04T07:10:59.076Z,25.70
2018-08-04T07:13:26.425Z,25.70
2018-08-04T07:15:53.854Z,25.60
2018-08-04T07:18:21.404Z,25.60
2018-08-04T07:20:48.789Z,25.70
2018-08-04T07:23:17.151Z,25.70
2018-08-04T07:25:44.457Z,25.80
2018-08-04T07:28:11.761Z,26.20
2018-08-04T07:30:39.201Z,26.10
2018-08-04T07:33:06.630Z,26.20
2018-08-04T07:35:33.972Z,26.40
2018-08-04T07:38:01.289Z,26.60
2018-08-04T07:40:28.834Z,26.90
2018-08-04T07:42:56.178Z,26.90
2018-08-04T07:45:23.637Z,27.10
2018-08-04T07:47:50.969Z,27.30
2018-08-04T07:50:18.447Z,27.50
2018-08-04T07:52:45.790Z,27.90
2018-08-04T07:55:13.146Z,28.60
2018-08-04T07:57:40.777Z,30.10
2018-08-04T08:00:09.004Z,32.30
2018-08-04T08:02:36.491Z,34.20
2018-08-04T08:05:04.658Z,35.80
2018-08-04T08:07:32.317Z,36.40
2018-08-04T08:10:00.059Z,36.60
2018-08-04T08:12:27.587Z,36.30
2018-08-04T08:14:55.202Z,36.30
2018-08-04T08:17:22.706Z,36.40
2018-08-04T08:19:50.249Z,36.60
2018-08-04T08:22:17.889Z,37.70
2018-08-04T08:24:45.917Z,38.50
2018-08-04T08:27:13.438Z,38.60
2018-08-04T08:29:41.017Z,39.20
2018-08-04T08:32:08.682Z,39.50
2018-08-04T08:34:36.200Z,39.50
2018-08-04T08:37:06.196Z,38.90
2018-08-04T08:39:33.522Z,37.90
2018-08-04T08:42:00.996Z,36.20
2018-08-04T08:44:28.345Z,34.90
2018-08-04T08:46:55.742Z,33.60
2018-08-04T08:49:23.293Z,32.70
2018-08-04T08:51:50.711Z,31.80
2018-08-04T08:54:19.820Z,31.50
2018-08-04T08:56:47.273Z,31.00
2018-08-04T08:59:15.020Z,30.60
2018-08-04T09:01:42.619Z,30.50
2018-08-04T09:04:10.273Z,30.30
2018-08-04T09:06:37.850Z,30.20
2018-08-04T09:09:06.827Z,30.00
2018-08-04T09:11:34.434Z,29.90
2018-08-04T09:14:02.412Z,29.90
2018-08-04T09:16:29.854Z,29.90
2018-08-04T09:18:57.415Z,30.10
2018-08-04T09:21:24.773Z,30.00
2018-08-04T09:23:52.084Z,30.10
2018-08-04T09:26:19.781Z,30.10
2018-08-04T09:28:47.311Z,30.00
2018-08-04T09:31:14.937Z,30.00
2018-08-04T09:33:42.301Z,29.90
2018-08-04T09:36:09.653Z,30.00
2018-08-04T09:38:37.625Z,30.10
2018-08-04T09:41:05.285Z,30.20
2018-08-04T09:43:32.632Z,30.30
2018-08-04T09:46:00.398Z,30.30
2018-08-04T09:48:27.753Z,30.40
2018-08-04T09:50:55.078Z,30.40
2018-08-04T09:53:22.492Z,30.40
2018-08-04T09:55:49.843Z,30.50
2018-08-04T09:58:17.216Z,30.60
2018-08-04T10:00:50.428Z,30.30
2018-08-04T10:03:17.817Z,30.30
2018-08-04T10:05:45.248Z,30.50
2018-08-04T10:08:15.474Z,30.70
2018-08-04T10:10:42.833Z,30.80
2018-08-04T10:13:10.217Z,30.60
2018-08-04T10:15:37.568Z,31.10
2018-08-04T10:18:05.153Z,31.30
2018-08-04T10:20:32.477Z,31.20
2018-08-04T10:22:59.795Z,31.40
2018-08-04T10:25:28.191Z,31.50
2018-08-04T10:27:55.538Z,31.60
2018-08-04T10:30:22.920Z,31.70
2018-08-04T10:32:50.273Z,31.80
2018-08-04T10:35:17.839Z,31.70
2018-08-04T10:37:45.407Z,31.70
2018-08-04T10:40:12.780Z,32.00
2018-08-04T10:42:40.140Z,31.90
2018-08-04T10:45:15.650Z,32.10
2018-08-04T10:47:43.006Z,32.20
2018-08-04T10:50:12.022Z,32.30
2018-08-04T10:52:39.505Z,32.40
2018-08-04T10:55:07.012Z,32.30
2018-08-04T10:57:34.331Z,32.40
2018-08-04T11:00:01.650Z,32.30
2018-08-04T11:02:29.265Z,32.30
2018-08-04T11:04:56.550Z,32.20
2018-08-04T11:07:23.993Z,32.30
2018-08-04T11:09:51.342Z,32.50
2018-08-04T11:12:18.827Z,32.50
2018-08-04T11:14:46.282Z,32.80
2018-08-04T11:17:13.613Z,32.80
2018-08-04T11:19:45.882Z,32.50
2018-08-04T11:22:13.243Z,32.60
2018-08-04T11:24:40.682Z,32.80
2018-08-04T11:27:10.933Z,32.80
2018-08-04T11:29:56.468Z,32.60
2018-08-04T11:32:27.793Z,32.80
2018-08-04T11:34:55.151Z,32.80
2018-08-04T11:37:22.530Z,32.80
2018-08-04T11:39:49.913Z,32.70
2018-08-04T11:42:17.240Z,32.80
2018-08-04T11:47:17.169Z,32.90
2018-08-04T11:49:44.573Z,33.10
2018-08-04T11:52:12.019Z,33.10
2018-08-04T11:54:39.575Z,33.30
2018-08-04T11:57:06.969Z,33.30
2018-08-04T11:59:34.548Z,33.30
2018-08-04T12:02:03.426Z,33.40
2018-08-04T12:04:30.715Z,33.30
2018-08-04T12:06:58.053Z,33.10
2018-08-04T12:09:25.386Z,33.10
2018-08-04T12:11:52.709Z,33.10
2018-08-04T12:14:20.038Z,33.20
2018-08-04T12:16:52.037Z,33.50
2018-08-04T12:19:19.592Z,33.50
2018-08-04T12:21:47.189Z,33.50
2018-08-04T12:24:14.862Z,33.50
2018-08-04T12:26:42.463Z,33.50
2018-08-04T12:29:14.469Z,33.40
2018-08-04T12:31:41.854Z,33.50
2018-08-04T12:34:09.226Z,33.50
2018-08-04T12:36:36.605Z,33.50
2018-08-04T12:39:06.842Z,33.50
2018-08-04T12:41:37.867Z,33.20
2018-08-04T12:44:07.572Z,33.00
2018-08-04T12:46:35.051Z,33.00
2018-08-04T12:49:02.403Z,33.00
2018-08-04T12:51:29.743Z,33.10
2018-08-04T12:53:57.053Z,33.20
2018-08-04T12:56:29.128Z,33.20
2018-08-04T12:58:56.762Z,33.10
2018-08-04T13:01:24.543Z,33.10
2018-08-04T13:03:52.061Z,33.30
2018-08-04T13:06:19.917Z,33.50
2018-08-04T13:08:47.467Z,33.50
2018-08-04T13:11:19.066Z,33.60
2018-08-04T13:13:46.665Z,33.70
2018-08-04T13:16:14.190Z,33.80
2018-08-04T13:18:41.782Z,33.80
2018-08-04T13:21:09.391Z,33.90
2018-08-04T13:23:41.146Z,33.90
2018-08-04T13:26:09.800Z,33.90
2018-08-04T13:28:37.367Z,34.00
2018-08-04T13:31:04.921Z,34.00
2018-08-04T13:33:32.552Z,33.60
2018-08-04T13:36:00.173Z,33.90
2018-08-04T13:38:29.589Z,34.10
2018-08-04T13:40:57.229Z,33.90
2018-08-04T13:43:24.819Z,33.90
2018-08-04T13:45:52.387Z,34.00
2018-08-04T13:48:19.954Z,34.00
2018-08-04T13:50:47.529Z,34.10
2018-08-04T13:53:15.158Z,34.00
2018-08-04T13:55:42.722Z,34.00
2018-08-04T13:58:10.300Z,34.10
2018-08-04T14:00:37.870Z,34.10
2018-08-04T14:03:05.501Z,34.10
2018-08-04T14:05:33.031Z,34.20
2018-08-04T14:08:00.624Z,34.10
2018-08-04T14:10:28.160Z,34.20
2018-08-04T14:12:55.665Z,34.10
2018-08-04T14:15:23.355Z,34.20
2018-08-04T14:17:50.917Z,34.40
2018-08-04T14:20:18.494Z,34.20
2018-08-04T14:22:46.066Z,34.10
2018-08-04T14:25:13.610Z,34.30
2018-08-04T14:27:41.268Z,34.00
2018-08-04T14:30:09.613Z,34.00
2018-08-04T14:32:37.484Z,34.00
2018-08-04T14:35:05.575Z,34.30
2018-08-04T14:37:33.477Z,34.20
2018-08-04T14:40:01.056Z,34.10
2018-08-04T14:42:28.633Z,34.20
2018-08-04T14:44:56.192Z,34.20
2018-08-04T14:47:23.801Z,34.20
2018-08-04T14:49:51.378Z,34.10
2018-08-04T14:52:19.013Z,34.10
2018-08-04T14:54:46.720Z,34.10
2018-08-04T14:57:14.289Z,34.10
2018-08-04T14:59:41.821Z,34.00
2018-08-04T15:02:09.372Z,34.30
2018-08-04T15:04:36.991Z,34.30
2018-08-04T15:07:04.840Z,34.30
2018-08-04T15:09:32.439Z,34.20
2018-08-04T15:11:59.992Z,34.10
2018-08-04T15:14:27.544Z,34.20
2018-08-04T15:16:55.053Z,34.30
2018-08-04T15:19:22.580Z,34.20
2018-08-04T15:21:50.135Z,34.00
2018-08-04T15:24:17.652Z,34.00
2018-08-04T15:26:45.628Z,33.90
2018-08-04T15:29:13.168Z,33.80
2018-08-04T15:31:40.698Z,33.80
2018-08-04T15:34:08.180Z,33.70
2018-08-04T15:36:35.684Z,33.80
2018-08-04T15:39:04.913Z,33.80
2018-08-04T15:41:32.530Z,33.80
2018-08-04T15:44:00.172Z,33.70
2018-08-04T15:46:27.727Z,33.60
2018-08-04T15:48:55.246Z,33.70
2018-08-04T15:51:22.798Z,33.60
2018-08-04T15:53:50.349Z,33.60
2018-08-04T15:56:17.905Z,33.60
2018-08-04T15:58:45.508Z,33.60
2018-08-04T16:01:13.036Z,33.50
2018-08-04T16:03:40.670Z,33.50
2018-08-04T16:06:08.247Z,33.80
2018-08-04T16:08:35.849Z,33.50
2018-08-04T16:11:03.391Z,33.30
2018-08-04T16:13:31.063Z,33.40
2018-08-04T16:15:58.612Z,33.30
2018-08-04T16:18:26.198Z,33.50
2018-08-04T16:20:53.766Z,33.30
2018-08-04T16:23:21.274Z,33.30
2018-08-04T16:25:48.821Z,33.30
2018-08-04T16:28:16.405Z,33.30
2018-08-04T16:30:43.933Z,33.30
2018-08-04T16:33:11.497Z,33.00
2018-08-04T16:35:39.069Z,32.90
2018-08-04T16:38:06.661Z,32.70
2018-08-04T16:40:34.231Z,32.60
2018-08-04T16:43:01.776Z,32.70
2018-08-04T16:45:29.311Z,32.70
2018-08-04T16:47:56.890Z,32.70
2018-08-04T16:50:24.432Z,32.50
2018-08-04T16:55:19.789Z,32.30
2018-08-04T16:57:47.371Z,32.30
2018-08-04T17:00:15.009Z,32.20
2018-08-04T17:02:42.557Z,32.20
2018-08-04T17:05:10.161Z,32.30
2018-08-04T17:07:37.693Z,32.30
2018-08-04T17:10:05.270Z,32.30
2018-08-04T17:12:32.833Z,32.20
2018-08-04T17:15:00.566Z,32.40
2018-08-04T17:17:28.182Z,32.20
2018-08-04T17:19:55.715Z,32.20
2018-08-04T17:22:23.264Z,32.20
2018-08-04T17:24:51.000Z,32.20
2018-08-04T17:27:18.781Z,32.20
2018-08-04T17:29:46.351Z,31.90
2018-08-04T17:32:13.860Z,31.80
2018-08-04T17:34:41.552Z,31.80
2018-08-04T17:37:09.141Z,31.70
2018-08-04T17:39:36.872Z,31.70
2018-08-04T17:42:04.407Z,31.50
2018-08-04T17:44:31.973Z,31.40
2018-08-04T17:46:59.470Z,31.40
2018-08-04T17:49:27.064Z,30.90
2018-08-04T17:51:54.752Z,31.30
2018-08-04T17:54:22.440Z,31.20
2018-08-04T17:56:50.052Z,31.00
2018-08-04T17:59:17.552Z,31.20
2018-08-04T18:01:45.182Z,31.00
2018-08-04T18:04:12.788Z,30.80
2018-08-04T18:06:40.561Z,30.90
2018-08-04T18:09:09.235Z,30.80
2018-08-04T18:11:37.827Z,30.70
2018-08-04T18:14:05.374Z,30.70
2018-08-04T18:16:33.598Z,30.50
2018-08-04T18:19:01.333Z,30.40
2018-08-04T18:21:28.981Z,30.30
2018-08-04T18:23:56.570Z,30.20
2018-08-04T18:28:51.863Z,30.00
2018-08-04T18:31:19.588Z,30.10
2018-08-04T18:33:47.251Z,30.10
2018-08-04T18:36:14.973Z,30.10
2018-08-04T18:38:42.532Z,30.00
2018-08-04T18:41:10.155Z,29.80
2018-08-04T18:43:38.843Z,29.80
2018-08-04T18:46:06.602Z,29.50
2018-08-04T18:48:34.163Z,29.50
2018-08-04T18:51:01.743Z,29.40
2018-08-04T18:53:29.304Z,29.50
2018-08-04T18:55:56.900Z,29.40
2018-08-04T18:58:24.396Z,29.30
2018-08-04T19:00:51.938Z,29.20
2018-08-04T19:03:19.573Z,29.20
2018-08-04T19:05:47.158Z,29.00
2018-08-04T19:10:42.310Z,28.80
2018-08-04T19:13:09.852Z,28.80
2018-08-04T19:15:37.420Z,28.70
2018-08-04T19:18:05.471Z,28.60
2018-08-04T19:20:33.016Z,28.50
2018-08-04T19:23:00.644Z,28.40
2018-08-04T19:25:28.224Z,28.50
2018-08-04T19:27:56.015Z,28.60
2018-08-04T19:30:25.489Z,28.40
2018-08-04T19:32:53.586Z,28.30
2018-08-04T19:35:21.128Z,28.30
2018-08-04T19:37:48.740Z,28.00
2018-08-04T19:40:16.346Z,28.30
2018-08-04T19:45:11.415Z,28.10
2018-08-04T19:47:38.894Z,28.00
2018-08-04T19:50:06.511Z,27.90
2018-08-04T19:52:34.101Z,27.90
2018-08-04T19:55:01.838Z,28.00
2018-08-04T19:57:29.453Z,28.00
2018-08-04T19:59:56.966Z,27.80
2018-08-04T20:02:24.489Z,27.70
2018-08-04T20:04:51.988Z,27.60
2018-08-04T20:07:19.804Z,27.70
2018-08-04T20:09:47.383Z,27.80
2018-08-04T20:12:14.934Z,27.80
2018-08-04T20:14:42.986Z,27.70
2018-08-04T20:17:10.511Z,27.60
2018-08-04T20:19:38.054Z,27.60
2018-08-04T20:22:10.223Z,27.50
2018-08-04T20:24:37.838Z,27.50
2018-08-04T20:27:05.548Z,27.50
2018-08-04T20:29:33.143Z,27.40
2018-08-04T20:32:00.706Z,27.40
2018-08-04T20:34:28.260Z,27.30
2018-08-04T20:36:55.865Z,27.40
2018-08-04T20:39:23.408Z,27.40
2018-08-04T20:41:50.980Z,27.50
2018-08-04T20:44:18.564Z,27.20
2018-08-04T20:46:46.328Z,27.20
2018-08-04T20:49:13.835Z,27.20
2018-08-04T20:51:41.410Z,27.20
2018-08-04T20:54:09.073Z,27.10
2018-08-04T20:56:36.741Z,27.20
2018-08-04T20:59:04.346Z,27.20
2018-08-04T21:02:08.112Z,27.10
2018-08-04T21:04:35.983Z,27.10
2018-08-04T21:07:04.643Z,26.80
2018-08-04T21:09:32.184Z,26.90
2018-08-04T21:11:59.583Z,26.90
2018-08-04T21:14:27.798Z,26.90
2018-08-04T21:16:56.116Z,26.90
2018-08-04T21:19:24.128Z,26.70
2018-08-04T21:21:51.517Z,26.60
2018-08-04T21:26:53.629Z,26.50
2018-08-04T21:29:21.702Z,26.50
2018-08-04T21:31:49.185Z,26.50
2018-08-04T21:34:16.646Z,26.30
2018-08-04T21:36:44.069Z,26.30
2018-08-04T21:39:17.005Z,26.30
2018-08-04T21:41:46.010Z,26.20
2018-08-04T21:44:13.559Z,26.30
2018-08-04T21:46:43.525Z,26.30
2018-08-04T21:49:10.887Z,26.10
2018-08-04T21:51:44.540Z,26.10
2018-08-04T21:56:40.958Z,26.00
2018-08-04T21:59:08.991Z,25.90
2018-08-04T22:01:36.381Z,25.90
2018-08-04T22:04:03.738Z,25.80
2018-08-04T22:06:46.918Z,25.70
2018-08-04T22:09:19.790Z,25.70
2018-08-04T22:11:52.217Z,25.60
2018-08-04T22:14:19.753Z,25.50
2018-08-04T22:16:47.171Z,25.50
2018-08-04T22:19:14.594Z,25.50
2018-08-04T22:21:41.919Z,25.50
2018-08-04T22:24:09.993Z,25.50
2018-08-04T22:26:37.334Z,25.40
2018-08-04T22:29:06.442Z,25.40
2018-08-04T22:31:33.821Z,25.30
2018-08-04T22:34:01.198Z,25.30
2018-08-04T22:36:28.565Z,25.10
2018-08-04T22:38:56.068Z,25.10
2018-08-04T22:41:23.382Z,25.10
2018-08-04T22:43:50.709Z,25.10
2018-08-04T22:46:18.038Z,25.10
2018-08-04T22:48:46.980Z,25.00
2018-08-04T22:51:19.093Z,25.00
2018-08-04T22:53:46.891Z,25.00
2018-08-04T22:56:14.573Z,25.10
2018-08-04T22:58:42.193Z,25.00
2018-08-04T23:01:09.821Z,25.00
2018-08-04T23:03:37.385Z,25.00
2018-08-04T23:06:05.214Z,25.00
2018-08-04T23:08:32.782Z,25.00
2018-08-04T23:11:00.346Z,25.00
2018-08-04T23:13:27.903Z,24.80
2018-08-04T23:15:58.376Z,24.80
2018-08-04T23:18:27.484Z,24.80
2018-08-04T23:20:54.900Z,24.80
2018-08-04T23:23:22.334Z,24.80
2018-08-04T23:25:49.723Z,24.70
2018-08-04T23:28:17.067Z,24.70
2018-08-04T23:30:47.641Z,24.80
2018-08-04T23:33:14.997Z,24.70
2018-08-04T23:35:42.386Z,24.70
2018-08-04T23:38:09.986Z,24.40
2018-08-04T23:40:37.552Z,24.60
2018-08-04T23:46:07.939Z,24.50
2018-08-04T23:48:35.264Z,24.50
2018-08-04T23:51:02.789Z,24.40
2018-08-04T23:53:30.212Z,24.20
2018-08-04T23:55:57.579Z,24.50
2018-08-04T23:58:24.986Z,24.50
